sensor_id;sensor_type;location;lat;lon;timestamp;pressure;altitude;pressure_sealevel;temperature;humidity
61472;BME280;47337;54.068;12.114;2022-09-03T00:01:37;101637.41;;;14.15;100.00
61472;BME280;47337;54.068;12.114;2022-09-03T00:04:27;101633.06;;;14.23;100.00
61472;BME280;47337;54.068;12.114;2022-09-03T00:07:02;101634.00;;;14.26;100.00
61472;BME280;47337;54.068;12.114;2022-09-03T00:09:49;101633.06;;;14.23;100.00
61472;BME280;47337;54.068;12.114;2022-09-03T00:12:22;101632.25;;;14.27;100.00
61472;BME280;47337;54.068;12.114;2022-09-03T00:17:28;101616.47;;;14.36;100.00
61472;BME280;47337;54.068;12.114;2022-09-03T00:19:59;101621.75;;;14.38;100.00
61472;BME280;47337;54.068;12.114;2022-09-03T00:22:32;101624.38;;;14.36;100.00
61472;BME280;47337;54.068;12.114;2022-09-03T00:25:03;101620.88;;;14.37;100.00
61472;BME280;47337;54.068;12.114;2022-09-03T00:27:36;101613.91;;;14.39;100.00
61472;BME280;47337;54.068;12.114;2022-09-03T00:30:10;101617.50;;;14.49;100.00
61472;BME280;47337;54.068;12.114;2022-09-03T00:32:55;101616.63;;;14.54;100.00
61472;BME280;47337;54.068;12.114;2022-09-03T00:35:27;101621.03;;;14.54;100.00
61472;BME280;47337;54.068;12.114;2022-09-03T00:37:56;101620.22;;;14.64;100.00
61472;BME280;47337;54.068;12.114;2022-09-03T00:43:21;101610.44;;;14.52;100.00
61472;BME280;47337;54.068;12.114;2022-09-03T00:46:03;101614.13;;;14.73;100.00
61472;BME280;47337;54.068;12.114;2022-09-03T00:48:50;101612.34;;;14.67;100.00
61472;BME280;47337;54.068;12.114;2022-09-03T00:54:15;101611.44;;;14.65;100.00
61472;BME280;47337;54.068;12.114;2022-09-03T00:56:57;101607.16;;;14.81;100.00
61472;BME280;47337;54.068;12.114;2022-09-03T01:02:32;101599.22;;;14.84;100.00
61472;BME280;47337;54.068;12.114;2022-09-03T01:05:14;101601.84;;;14.79;100.00
61472;BME280;47337;54.068;12.114;2022-09-03T01:07:50;101599.16;;;14.75;100.00
61472;BME280;47337;54.068;12.114;2022-09-03T01:12:57;101598.19;;;14.62;100.00
61472;BME280;47337;54.068;12.114;2022-09-03T01:20:37;101598.94;;;14.44;100.00
61472;BME280;47337;54.068;12.114;2022-09-03T01:28:49;101585.03;;;14.73;100.00
61472;BME280;47337;54.068;12.114;2022-09-03T01:46:17;101587.56;;;14.54;100.00
61472;BME280;47337;54.068;12.114;2022-09-03T01:48:52;101586.69;;;14.51;100.00
61472;BME280;47337;54.068;12.114;2022-09-03T01:51:30;101594.59;;;14.49;100.00
61472;BME280;47337;54.068;12.114;2022-09-03T01:54:15;101589.34;;;14.55;100.00
61472;BME280;47337;54.068;12.114;2022-09-03T02:02:19;101584.97;;;14.57;100.00
61472;BME280;47337;54.068;12.114;2022-09-03T02:07:32;101583.16;;;14.50;100.00
61472;BME280;47337;54.068;12.114;2022-09-03T02:10:02;101583.97;;;14.43;100.00
61472;BME280;47337;54.068;12.114;2022-09-03T02:12:29;101588.44;;;14.53;100.00
61472;BME280;47337;54.068;12.114;2022-09-03T02:15:00;101574.34;;;14.54;100.00
61472;BME280;47337;54.068;12.114;2022-09-03T02:17:28;101577.03;;;14.57;100.00
61472;BME280;47337;54.068;12.114;2022-09-03T02:19:54;101579.69;;;14.57;100.00
61472;BME280;47337;54.068;12.114;2022-09-03T02:22:19;101582.25;;;14.48;100.00
61472;BME280;47337;54.068;12.114;2022-09-03T02:24:45;101576.13;;;14.55;100.00
61472;BME280;47337;54.068;12.114;2022-09-03T02:27:10;101572.50;;;14.43;100.00
61472;BME280;47337;54.068;12.114;2022-09-03T02:29:36;101568.13;;;14.45;100.00
61472;BME280;47337;54.068;12.114;2022-09-03T02:32:01;101566.34;;;14.39;100.00
61472;BME280;47337;54.068;12.114;2022-09-03T02:34:29;101564.66;;;14.55;100.00
61472;BME280;47337;54.068;12.114;2022-09-03T02:36:55;101562.91;;;14.51;100.00
61472;BME280;47337;54.068;12.114;2022-09-03T02:39:22;101562.81;;;14.40;100.00
61472;BME280;47337;54.068;12.114;2022-09-03T02:41:56;101563.72;;;14.44;100.00
61472;BME280;47337;54.068;12.114;2022-09-03T02:44:29;101569.03;;;14.47;100.00
61472;BME280;47337;54.068;12.114;2022-09-03T02:47:01;101555.91;;;14.60;100.00
61472;BME280;47337;54.068;12.114;2022-09-03T02:49:27;101554.13;;;14.56;100.00
61472;BME280;47337;54.068;12.114;2022-09-03T02:51:58;101543.56;;;14.62;100.00
61472;BME280;47337;54.068;12.114;2022-09-03T02:54:31;101552.25;;;14.43;100.00
61472;BME280;47337;54.068;12.114;2022-09-03T02:57:00;101552.25;;;14.43;100.00
61472;BME280;47337;54.068;12.114;2022-09-03T02:59:26;101553.94;;;14.37;100.00
61472;BME280;47337;54.068;12.114;2022-09-03T03:01:54;101551.31;;;14.38;100.00
61472;BME280;47337;54.068;12.114;2022-09-03T03:04:22;101553.88;;;14.26;100.00
61472;BME280;47337;54.068;12.114;2022-09-03T03:06:49;101560.16;;;14.42;100.00
61472;BME280;47337;54.068;12.114;2022-09-03T03:09:19;101563.63;;;14.35;100.00
61472;BME280;47337;54.068;12.114;2022-09-03T03:11:45;101562.66;;;14.25;100.00
61472;BME280;47337;54.068;12.114;2022-09-03T03:14:10;101566.13;;;14.18;100.00
61472;BME280;47337;54.068;12.114;2022-09-03T03:16:37;101569.66;;;14.17;100.00
61472;BME280;47337;54.068;12.114;2022-09-03T03:19:03;101564.31;;;14.14;100.00
61472;BME280;47337;54.068;12.114;2022-09-03T03:21:28;101564.28;;;14.09;100.00
61472;BME280;47337;54.068;12.114;2022-09-03T03:23:53;101573.94;;;14.04;100.00
61472;BME280;47337;54.068;12.114;2022-09-03T03:26:22;101578.38;;;14.10;100.00
61472;BME280;47337;54.068;12.114;2022-09-03T03:28:49;101569.56;;;14.09;100.00
61472;BME280;47337;54.068;12.114;2022-09-03T03:31:19;101575.75;;;14.11;100.00
61472;BME280;47337;54.068;12.114;2022-09-03T03:33:57;101579.19;;;14.03;100.00
61472;BME280;47337;54.068;12.114;2022-09-03T03:36:25;101588.81;;;13.99;100.00
61472;BME280;47337;54.068;12.114;2022-09-03T03:38:57;101584.50;;;14.04;100.00
61472;BME280;47337;54.068;12.114;2022-09-03T03:41:28;101588.88;;;14.04;100.00
61472;BME280;47337;54.068;12.114;2022-09-03T03:43:57;101591.56;;;14.10;100.00
61472;BME280;47337;54.068;12.114;2022-09-03T03:46:29;101587.06;;;13.97;100.00
61472;BME280;47337;54.068;12.114;2022-09-03T03:48:55;101592.34;;;14.00;100.00
61472;BME280;47337;54.068;12.114;2022-09-03T03:51:21;101593.16;;;13.91;100.00
61472;BME280;47337;54.068;12.114;2022-09-03T03:53:46;101594.09;;;13.99;100.00
61472;BME280;47337;54.068;12.114;2022-09-03T03:56:14;101581.84;;;14.03;100.00
61472;BME280;47337;54.068;12.114;2022-09-03T03:58:41;101587.94;;;13.99;100.00
61472;BME280;47337;54.068;12.114;2022-09-03T04:03:34;101594.94;;;13.93;100.00
61472;BME280;47337;54.068;12.114;2022-09-03T04:06:00;101589.56;;;13.83;100.00
61472;BME280;47337;54.068;12.114;2022-09-03T04:08:26;101590.41;;;13.80;100.00
61472;BME280;47337;54.068;12.114;2022-09-03T04:10:57;101593.84;;;13.73;100.00
61472;BME280;47337;54.068;12.114;2022-09-03T04:13:23;101600.91;;;13.74;100.00
61472;BME280;47337;54.068;12.114;2022-09-03T04:15:48;101604.34;;;13.67;100.00
61472;BME280;47337;54.068;12.114;2022-09-03T04:18:14;101604.38;;;13.70;100.00
61472;BME280;47337;54.068;12.114;2022-09-03T04:20:39;101601.75;;;13.70;100.00
61472;BME280;47337;54.068;12.114;2022-09-03T04:23:05;101600.88;;;13.71;100.00
61472;BME280;47337;54.068;12.114;2022-09-03T04:25:30;101611.38;;;13.65;100.00
61472;BME280;47337;54.068;12.114;2022-09-03T04:27:56;101604.38;;;13.70;100.00
61472;BME280;47337;54.068;12.114;2022-09-03T04:30:22;101595.59;;;13.71;100.00
61472;BME280;47337;54.068;12.114;2022-09-03T04:32:50;101596.47;;;13.70;100.00
61472;BME280;47337;54.068;12.114;2022-09-03T04:35:25;101602.72;;;13.80;100.00
61472;BME280;47337;54.068;12.114;2022-09-03T04:37:53;101603.56;;;13.77;100.00
61472;BME280;47337;54.068;12.114;2022-09-03T04:40:19;101601.03;;;13.86;100.00
61472;BME280;47337;54.068;12.114;2022-09-03T04:42:44;101601.03;;;13.88;100.00
61472;BME280;47337;54.068;12.114;2022-09-03T04:45:10;101588.72;;;13.88;100.00
61472;BME280;47337;54.068;12.114;2022-09-03T04:47:36;101601.13;;;13.99;100.00
61472;BME280;47337;54.068;12.114;2022-09-03T04:50:03;101596.13;;;14.26;100.00
61472;BME280;47337;54.068;12.114;2022-09-03T04:52:29;101586.34;;;14.14;100.00
61472;BME280;47337;54.068;12.114;2022-09-03T04:54:56;101596.09;;;14.23;100.00
61472;BME280;47337;54.068;12.114;2022-09-03T04:57:22;101587.34;;;14.27;100.00
61472;BME280;47337;54.068;12.114;2022-09-03T04:59:47;101584.63;;;14.22;100.00
61472;BME280;47337;54.068;12.114;2022-09-03T05:02:13;101588.25;;;14.29;100.00
61472;BME280;47337;54.068;12.114;2022-09-03T05:04:38;101585.50;;;14.21;100.00
61472;BME280;47337;54.068;12.114;2022-09-03T05:07:04;101588.16;;;14.21;100.00
61472;BME280;47337;54.068;12.114;2022-09-03T05:09:32;101581.94;;;14.15;100.00
61472;BME280;47337;54.068;12.114;2022-09-03T05:12:01;101589.06;;;14.23;100.00
61472;BME280;47337;54.068;12.114;2022-09-03T05:14:26;101587.34;;;14.28;100.00
61472;BME280;47337;54.068;12.114;2022-09-03T05:16:52;101575.97;;;14.39;100.00
61472;BME280;47337;54.068;12.114;2022-09-03T05:19:19;101571.75;;;14.59;100.00
61472;BME280;47337;54.068;12.114;2022-09-03T05:21:45;101568.16;;;14.52;100.00
61472;BME280;47337;54.068;12.114;2022-09-03T05:24:10;101566.50;;;14.67;100.00
61472;BME280;47337;54.068;12.114;2022-09-03T05:26:38;101560.53;;;14.93;100.00
61472;BME280;47337;54.068;12.114;2022-09-03T05:29:05;101549.13;;;15.08;100.00
61472;BME280;47337;54.068;12.114;2022-09-03T05:31:36;101548.34;;;15.35;99.70
61472;BME280;47337;54.068;12.114;2022-09-03T05:34:06;101543.13;;;15.59;97.41
61472;BME280;47337;54.068;12.114;2022-09-03T05:36:41;101531.72;;;15.97;95.43
61472;BME280;47337;54.068;12.114;2022-09-03T05:39:06;101508.75;;;16.16;93.38
61472;BME280;47337;54.068;12.114;2022-09-03T05:41:32;101511.41;;;16.41;91.70
61472;BME280;47337;54.068;12.114;2022-09-03T05:44:00;101503.41;;;16.52;90.07
61472;BME280;47337;54.068;12.114;2022-09-03T05:46:28;101499.84;;;16.65;88.73
61472;BME280;47337;54.068;12.114;2022-09-03T05:49:00;101494.56;;;16.65;87.66
61472;BME280;47337;54.068;12.114;2022-09-03T05:51:26;101480.41;;;16.63;86.87
61472;BME280;47337;54.068;12.114;2022-09-03T05:53:52;101487.50;;;16.61;86.69
61472;BME280;47337;54.068;12.114;2022-09-03T05:56:22;101483.94;;;16.68;86.41
61472;BME280;47337;54.068;12.114;2022-09-03T05:58:52;101486.59;;;16.71;86.21
61472;BME280;47337;54.068;12.114;2022-09-03T06:01:29;101489.25;;;16.59;86.02
61472;BME280;47337;54.068;12.114;2022-09-03T06:04:01;101481.31;;;16.65;85.58
61472;BME280;47337;54.068;12.114;2022-09-03T06:06:29;101476.00;;;16.53;85.20
61472;BME280;47337;54.068;12.114;2022-09-03T06:09:05;101492.78;;;16.61;85.89
61472;BME280;47337;54.068;12.114;2022-09-03T06:11:33;101494.56;;;16.58;85.77
61472;BME280;47337;54.068;12.114;2022-09-03T06:14:01;101492.78;;;16.54;85.23
61472;BME280;47337;54.068;12.114;2022-09-03T06:16:28;101491.03;;;16.45;85.76
61472;BME280;47337;54.068;12.114;2022-09-03T06:18:54;101492.84;;;16.40;85.39
61472;BME280;47337;54.068;12.114;2022-09-03T06:21:21;101497.22;;;16.42;85.61
61472;BME280;47337;54.068;12.114;2022-09-03T06:23:54;101501.69;;;16.39;85.68
61472;BME280;47337;54.068;12.114;2022-09-03T06:26:32;101498.13;;;16.49;85.69
61472;BME280;47337;54.068;12.114;2022-09-03T06:28:57;101501.66;;;16.53;85.39
61472;BME280;47337;54.068;12.114;2022-09-03T06:31:24;101500.78;;;16.52;85.43
61472;BME280;47337;54.068;12.114;2022-09-03T06:33:50;101504.28;;;16.57;85.50
61472;BME280;47337;54.068;12.114;2022-09-03T06:36:18;101502.50;;;16.71;85.07
61472;BME280;47337;54.068;12.114;2022-09-03T06:38:44;101502.50;;;16.73;84.77
61472;BME280;47337;54.068;12.114;2022-09-03T06:41:15;101499.91;;;16.62;84.95
61472;BME280;47337;54.068;12.114;2022-09-03T06:43:59;101505.16;;;16.70;84.83
61472;BME280;47337;54.068;12.114;2022-09-03T06:46:28;101503.38;;;16.82;84.29
61472;BME280;47337;54.068;12.114;2022-09-03T06:48:56;101490.09;;;16.78;83.87
61472;BME280;47337;54.068;12.114;2022-09-03T06:51:26;101501.53;;;16.97;83.94
61472;BME280;47337;54.068;12.114;2022-09-03T06:53:58;101503.31;;;16.92;83.97
61472;BME280;47337;54.068;12.114;2022-09-03T06:56:24;101513.00;;;17.03;84.30
61472;BME280;47337;54.068;12.114;2022-09-03T06:58:52;101503.22;;;17.13;83.60
61472;BME280;47337;54.068;12.114;2022-09-03T07:01:20;101489.03;;;17.23;82.71
61472;BME280;47337;54.068;12.114;2022-09-03T07:03:51;101482.88;;;17.13;81.85
61472;BME280;47337;54.068;12.114;2022-09-03T07:06:19;101502.22;;;17.34;82.34
61472;BME280;47337;54.068;12.114;2022-09-03T07:08:45;101490.66;;;17.42;81.77
61472;BME280;47337;54.068;12.114;2022-09-03T07:11:13;101487.94;;;17.53;81.60
61472;BME280;47337;54.068;12.114;2022-09-03T07:13:45;101474.69;;;17.51;80.84
61472;BME280;47337;54.068;12.114;2022-09-03T07:16:14;101491.63;;;17.32;81.19
61472;BME280;47337;54.068;12.114;2022-09-03T07:18:42;101494.22;;;17.43;81.73
61472;BME280;47337;54.068;12.114;2022-09-03T07:21:16;101496.00;;;17.39;81.44
61472;BME280;47337;54.068;12.114;2022-09-03T07:23:43;101497.69;;;17.52;81.45
61472;BME280;47337;54.068;12.114;2022-09-03T07:26:11;101486.88;;;17.80;80.50
61472;BME280;47337;54.068;12.114;2022-09-03T07:28:39;101491.25;;;17.90;80.08
61472;BME280;47337;54.068;12.114;2022-09-03T07:31:09;101488.59;;;17.90;79.75
61472;BME280;47337;54.068;12.114;2022-09-03T07:33:41;101477.91;;;17.98;79.09
61472;BME280;47337;54.068;12.114;2022-09-03T07:36:12;101462.94;;;17.84;78.11
61472;BME280;47337;54.068;12.114;2022-09-03T07:38:38;101470.03;;;17.85;78.69
61472;BME280;47337;54.068;12.114;2022-09-03T07:41:05;101480.66;;;17.87;78.56
61472;BME280;47337;54.068;12.114;2022-09-03T07:43:40;101475.31;;;17.88;78.38
61472;BME280;47337;54.068;12.114;2022-09-03T07:46:07;101474.16;;;18.18;77.99
61472;BME280;47337;54.068;12.114;2022-09-03T07:48:33;101467.88;;;18.28;77.51
61472;BME280;47337;54.068;12.114;2022-09-03T07:50:59;101456.31;;;18.33;77.19
61472;BME280;47337;54.068;12.114;2022-09-03T07:53:28;101456.25;;;18.36;76.38
61472;BME280;47337;54.068;12.114;2022-09-03T07:56:00;101448.25;;;18.40;76.10
61472;BME280;47337;54.068;12.114;2022-09-03T07:58:28;101433.09;;;18.47;75.30
61472;BME280;47337;54.068;12.114;2022-09-03T08:00:54;101444.59;;;18.50;75.03
61472;BME280;47337;54.068;12.114;2022-09-03T08:03:21;101430.41;;;18.50;74.55
61472;BME280;47337;54.068;12.114;2022-09-03T08:05:46;101437.53;;;18.46;74.79
61472;BME280;47337;54.068;12.114;2022-09-03T08:08:12;101442.81;;;18.49;74.79
61472;BME280;47337;54.068;12.114;2022-09-03T08:10:39;101451.22;;;18.89;74.31
61472;BME280;47337;54.068;12.114;2022-09-03T08:13:05;101428.19;;;18.87;73.22
61472;BME280;47337;54.068;12.114;2022-09-03T08:15:31;101443.06;;;19.01;73.80
61472;BME280;47337;54.068;12.114;2022-09-03T08:17:57;101452.53;;;19.22;73.67
61472;BME280;47337;54.068;12.114;2022-09-03T08:20:24;101422.34;;;19.25;71.94
61472;BME280;47337;54.068;12.114;2022-09-03T08:22:50;101416.81;;;19.38;70.92
61472;BME280;47337;54.068;12.114;2022-09-03T08:25:15;101406.34;;;19.28;69.64
61472;BME280;47337;54.068;12.114;2022-09-03T08:27:41;101404.28;;;19.44;69.70
61472;BME280;47337;54.068;12.114;2022-09-03T08:30:07;101403.19;;;19.60;69.13
61472;BME280;47337;54.068;12.114;2022-09-03T08:32:37;101408.38;;;19.67;69.33
61472;BME280;47337;54.068;12.114;2022-09-03T08:35:04;101415.16;;;19.87;69.31
61472;BME280;47337;54.068;12.114;2022-09-03T08:37:30;101415.19;;;19.84;69.12
61472;BME280;47337;54.068;12.114;2022-09-03T08:39:57;101418.25;;;20.12;69.24
61472;BME280;47337;54.068;12.114;2022-09-03T08:45:00;101388.75;;;20.21;67.13
61472;BME280;47337;54.068;12.114;2022-09-03T08:52:41;101373.63;;;20.21;66.35
61472;BME280;47337;54.068;12.114;2022-09-03T08:58:17;101364.88;;;20.13;65.54
61472;BME280;47337;54.068;12.114;2022-09-03T09:00:47;101366.41;;;20.26;65.15
61472;BME280;47337;54.068;12.114;2022-09-03T09:09:16;101370.19;;;20.59;64.74
61472;BME280;47337;54.068;12.114;2022-09-03T09:14:23;101336.78;;;20.41;62.87
61472;BME280;47337;54.068;12.114;2022-09-03T09:22:55;101322.06;;;20.65;61.55
61472;BME280;47337;54.068;12.114;2022-09-03T09:25:22;101298.44;;;20.86;60.46
61472;BME280;47337;54.068;12.114;2022-09-03T09:27:55;101294.00;;;20.86;60.09
61472;BME280;47337;54.068;12.114;2022-09-03T09:30:23;101286.88;;;20.85;60.01
61472;BME280;47337;54.068;12.114;2022-09-03T09:32:48;101303.28;;;21.07;60.39
61472;BME280;47337;54.068;12.114;2022-09-03T09:35:16;101247.75;;;20.84;58.17
61472;BME280;47337;54.068;12.114;2022-09-03T09:37:48;101273.13;;;21.02;58.70
61472;BME280;47337;54.068;12.114;2022-09-03T09:42:50;101272.69;;;21.20;58.64
61472;BME280;47337;54.068;12.114;2022-09-03T09:45:23;101270.22;;;21.46;58.04
61472;BME280;47337;54.068;12.114;2022-09-03T09:47:54;101246.13;;;21.49;56.91
61472;BME280;47337;54.068;12.114;2022-09-03T09:50:21;101235.56;;;21.43;56.51
61472;BME280;47337;54.068;12.114;2022-09-03T09:52:47;101255.53;;;21.63;57.04
61472;BME280;47337;54.068;12.114;2022-09-03T09:55:18;101231.63;;;21.58;55.42
61472;BME280;47337;54.068;12.114;2022-09-03T09:57:54;101230.47;;;21.67;54.87
61472;BME280;47337;54.068;12.114;2022-09-03T10:00:28;101229.66;;;21.63;54.91
61472;BME280;47337;54.068;12.114;2022-09-03T10:02:53;101212.00;;;21.59;54.34
61472;BME280;47337;54.068;12.114;2022-09-03T10:05:27;101229.59;;;21.66;55.21
61472;BME280;47337;54.068;12.114;2022-09-03T10:08:03;101205.88;;;21.85;nan
61472;BME280;47337;54.068;12.114;2022-09-03T10:10:32;101221.53;;;22.00;53.88
61472;BME280;47337;54.068;12.114;2022-09-03T10:15:54;101238.53;;;22.27;54.10
61472;BME280;47337;54.068;12.114;2022-09-03T10:21:05;101207.75;;;22.42;53.02
61472;BME280;47337;54.068;12.114;2022-09-03T10:24:03;101199.44;;;22.23;52.95
61472;BME280;47337;54.068;12.114;2022-09-03T10:26:39;101228.94;;;22.20;53.65
61472;BME280;47337;54.068;12.114;2022-09-03T10:29:08;101182.38;;;22.25;51.90
61472;BME280;47337;54.068;12.114;2022-09-03T10:34:31;101162.84;;;22.23;51.11
61472;BME280;47337;54.068;12.114;2022-09-03T10:37:26;101183.09;;;22.32;52.02
61472;BME280;47337;54.068;12.114;2022-09-03T10:42:39;101180.38;;;22.34;51.48
61472;BME280;47337;54.068;12.114;2022-09-03T10:50:27;101178.22;;;22.45;51.26
61472;BME280;47337;54.068;12.114;2022-09-03T10:56:05;101183.00;;;22.35;51.76
61472;BME280;47337;54.068;12.114;2022-09-03T11:07:06;101147.41;;;22.59;50.14
61472;BME280;47337;54.068;12.114;2022-09-03T11:09:40;101159.81;;;22.62;50.88
61472;BME280;47337;54.068;12.114;2022-09-03T11:12:11;101145.69;;;22.57;50.70
61472;BME280;47337;54.068;12.114;2022-09-03T11:17:45;101137.53;;;22.35;50.64
61472;BME280;47337;54.068;12.114;2022-09-03T11:22:39;101143.78;;;22.06;50.91
61472;BME280;47337;54.068;12.114;2022-09-03T11:25:07;101150.69;;;22.41;50.57
61472;BME280;47337;54.068;12.114;2022-09-03T11:30:12;101154.50;;;22.34;50.93
61472;BME280;47337;54.068;12.114;2022-09-03T11:33:00;101163.06;;;22.45;51.07
61472;BME280;47337;54.068;12.114;2022-09-03T11:38:09;101137.16;;;22.46;50.08
61472;BME280;47337;54.068;12.114;2022-09-03T11:43:30;101136.81;;;22.83;49.51
61472;BME280;47337;54.068;12.114;2022-09-03T11:46:51;101138.81;;;22.78;49.66
61472;BME280;47337;54.068;12.114;2022-09-03T11:48:55;101121.91;;;22.76;49.16
61472;BME280;47337;54.068;12.114;2022-09-03T11:51:35;101151.13;;;22.82;49.69
61472;BME280;47337;54.068;12.114;2022-09-03T11:54:30;101162.91;;;22.78;50.80
61472;BME280;47337;54.068;12.114;2022-09-03T11:57:28;101147.25;;;22.64;50.61
61472;BME280;47337;54.068;12.114;2022-09-03T12:00:12;101135.06;;;22.55;50.39
61472;BME280;47337;54.068;12.114;2022-09-03T12:02:47;101167.00;;;22.88;51.12
61472;BME280;47337;54.068;12.114;2022-09-03T12:05:25;101140.94;;;22.93;50.08
61472;BME280;47337;54.068;12.114;2022-09-03T12:08:21;101143.38;;;22.99;50.04
61472;BME280;47337;54.068;12.114;2022-09-03T12:11:28;101124.06;;;23.16;48.98
61472;BME280;47337;54.068;12.114;2022-09-03T12:14:01;101138.91;;;22.99;49.44
61472;BME280;47337;54.068;12.114;2022-09-03T12:17:03;101131.50;;;22.81;49.90
61472;BME280;47337;54.068;12.114;2022-09-03T12:19:40;101132.06;;;22.91;49.56
61472;BME280;47337;54.068;12.114;2022-09-03T12:22:12;101127.47;;;22.68;49.63
61472;BME280;47337;54.068;12.114;2022-09-03T12:24:39;101144.94;;;22.53;50.23
61472;BME280;47337;54.068;12.114;2022-09-03T12:27:09;101160.09;;;22.81;50.41
61472;BME280;47337;54.068;12.114;2022-09-03T12:29:37;101141.75;;;22.95;49.55
61472;BME280;47337;54.068;12.114;2022-09-03T12:32:08;101134.75;;;22.91;49.28
61472;BME280;47337;54.068;12.114;2022-09-03T12:34:35;101159.75;;;23.16;50.09
61472;BME280;47337;54.068;12.114;2022-09-03T12:37:17;101135.19;;;23.04;49.30
61472;BME280;47337;54.068;12.114;2022-09-03T12:39:50;101116.50;;;23.02;49.39
61472;BME280;47337;54.068;12.114;2022-09-03T12:42:24;101139.47;;;23.09;49.78
61472;BME280;47337;54.068;12.114;2022-09-03T12:44:50;101118.06;;;23.09;49.10
61472;BME280;47337;54.068;12.114;2022-09-03T12:47:21;101112.69;;;23.09;49.03
61472;BME280;47337;54.068;12.114;2022-09-03T12:49:49;101109.34;;;23.27;48.89
61472;BME280;47337;54.068;12.114;2022-09-03T12:57:51;101093.53;;;23.68;47.63
61472;BME280;47337;54.068;12.114;2022-09-03T13:00:17;101077.31;;;23.48;47.54
61472;BME280;47337;54.068;12.114;2022-09-03T13:05:34;101090.00;;;22.94;48.65
61472;BME280;47337;54.068;12.114;2022-09-03T13:08:02;101100.31;;;23.05;48.70
61472;BME280;47337;54.068;12.114;2022-09-03T13:10:36;101087.50;;;23.38;48.02
61472;BME280;47337;54.068;12.114;2022-09-03T13:13:18;101054.78;;;23.30;47.05
61472;BME280;47337;54.068;12.114;2022-09-03T13:21:35;101045.72;;;23.32;46.73
61472;BME280;47337;54.068;12.114;2022-09-03T13:31:49;101088.09;;;22.98;48.28
61472;BME280;47337;54.068;12.114;2022-09-03T13:34:25;101050.50;;;22.99;47.16
61472;BME280;47337;54.068;12.114;2022-09-03T13:37:22;101069.78;;;23.34;47.50
61472;BME280;47337;54.068;12.114;2022-09-03T13:40:05;101048.31;;;23.59;46.80
61472;BME280;47337;54.068;12.114;2022-09-03T13:42:39;101058.00;;;23.85;46.60
61472;BME280;47337;54.068;12.114;2022-09-03T13:45:27;101036.84;;;23.77;45.95
61472;BME280;47337;54.068;12.114;2022-09-03T13:48:17;101018.41;;;23.23;45.81
61472;BME280;47337;54.068;12.114;2022-09-03T13:53:43;101044.56;;;22.67;47.68
61472;BME280;47337;54.068;12.114;2022-09-03T13:59:19;101027.97;;;22.82;46.93
61472;BME280;47337;54.068;12.114;2022-09-03T14:02:41;101047.69;;;23.04;47.20
61472;BME280;47337;54.068;12.114;2022-09-03T14:08:04;101038.63;;;23.08;46.73
61472;BME280;47337;54.068;12.114;2022-09-03T14:10:56;101011.34;;;23.20;45.53
61472;BME280;47337;54.068;12.114;2022-09-03T14:18:58;101020.34;;;23.19;45.82
61472;BME280;47337;54.068;12.114;2022-09-03T14:21:27;101031.28;;;23.13;46.28
61472;BME280;47337;54.068;12.114;2022-09-03T14:26:35;101033.72;;;22.70;46.81
61472;BME280;47337;54.068;12.114;2022-09-03T14:29:05;101037.75;;;22.83;46.89
61472;BME280;47337;54.068;12.114;2022-09-03T14:40:24;101069.16;;;22.25;49.29
61472;BME280;47337;54.068;12.114;2022-09-03T14:43:09;101083.56;;;22.21;49.64
61472;BME280;47337;54.068;12.114;2022-09-03T14:46:12;101067.25;;;22.02;49.49
61472;BME280;47337;54.068;12.114;2022-09-03T14:48:52;101091.44;;;22.25;49.75
61472;BME280;47337;54.068;12.114;2022-09-03T14:57:10;101084.25;;;22.00;50.36
61472;BME280;47337;54.068;12.114;2022-09-03T15:05:30;101096.78;;;21.98;50.44
61472;BME280;47337;54.068;12.114;2022-09-03T15:08:21;101095.50;;;21.81;50.83
61472;BME280;47337;54.068;12.114;2022-09-03T15:10:58;101104.19;;;21.60;51.56
61472;BME280;47337;54.068;12.114;2022-09-03T15:13:41;101117.44;;;21.63;52.00
61472;BME280;47337;54.068;12.114;2022-09-03T15:21:51;101092.88;;;21.19;51.95
61472;BME280;47337;54.068;12.114;2022-09-03T15:27:50;101108.16;;;21.45;51.87
61472;BME280;47337;54.068;12.114;2022-09-03T15:30:19;101119.50;;;21.53;51.90
61472;BME280;47337;54.068;12.114;2022-09-03T15:41:03;101260.97;;;20.89;59.52
61472;BME280;47337;54.068;12.114;2022-09-03T15:43:33;101284.72;;;20.64;61.26
61472;BME280;47337;54.068;12.114;2022-09-03T15:48:44;101283.81;;;21.02;61.24
61472;BME280;47337;54.068;12.114;2022-09-03T15:51:24;101297.41;;;20.91;61.76
61472;BME280;47337;54.068;12.114;2022-09-03T15:53:55;101294.38;;;20.68;62.37
61472;BME280;47337;54.068;12.114;2022-09-03T15:56:38;101304.03;;;20.33;63.06
61472;BME280;47337;54.068;12.114;2022-09-03T15:59:14;101316.66;;;20.24;63.75
61472;BME280;47337;54.068;12.114;2022-09-03T16:05:04;101309.50;;;20.27;64.58
61472;BME280;47337;54.068;12.114;2022-09-03T16:10:14;101306.69;;;20.35;64.10
61472;BME280;47337;54.068;12.114;2022-09-03T16:13:17;101296.16;;;20.27;63.98
61472;BME280;47337;54.068;12.114;2022-09-03T16:16:00;101307.88;;;20.20;64.41
61472;BME280;47337;54.068;12.114;2022-09-03T16:21:18;101299.59;;;19.91;64.46
61472;BME280;47337;54.068;12.114;2022-09-03T16:23:55;101305.81;;;19.90;64.27
61472;BME280;47337;54.068;12.114;2022-09-03T16:26:41;101299.00;;;19.75;64.68